createdAt,value
2018-07-04T00:00:01.985Z,18.25
2018-07-04T00:01:01.992Z,18.19
2018-07-04T00:02:01.993Z,18.23
2018-07-04T00:03:01.997Z,18.19
2018-07-04T00:04:01.999Z,18.26
2018-07-04T00:05:02.004Z,18.22
2018-07-04T00:06:02.007Z,18.16
2018-07-04T00:07:02.010Z,18.13
2018-07-04T00:08:02.013Z,18.07
2018-07-04T00:09:02.017Z,18.07
2018-07-04T00:10:02.022Z,18.03
2018-07-04T00:11:02.027Z,18.10
2018-07-04T00:12:02.027Z,18.11
2018-07-04T00:13:02.031Z,17.95
2018-07-04T00:14:02.040Z,17.94
2018-07-04T00:15:02.038Z,17.87
2018-07-04T00:16:02.041Z,18.00
2018-07-04T00:17:02.043Z,17.94
2018-07-04T00:18:02.048Z,17.92
2018-07-04T00:19:02.050Z,17.92
2018-07-04T00:20:02.054Z,17.95
2018-07-04T00:21:02.081Z,17.92
2018-07-04T00:22:02.060Z,17.92
2018-07-04T00:23:02.065Z,17.87
2018-07-04T00:24:02.068Z,17.80
2018-07-04T00:25:02.077Z,17.82
2018-07-04T00:26:02.074Z,17.83
2018-07-04T00:27:02.080Z,17.94
2018-07-04T00:28:02.080Z,17.85
2018-07-04T00:29:02.084Z,17.83
2018-07-04T00:30:02.088Z,17.92
2018-07-04T00:31:02.091Z,17.85
2018-07-04T00:32:02.094Z,17.85
2018-07-04T00:33:02.097Z,17.80
2018-07-04T00:34:02.100Z,17.83
2018-07-04T00:35:02.105Z,17.80
2018-07-04T00:36:02.107Z,17.86
2018-07-04T00:37:02.110Z,17.83
2018-07-04T00:38:02.114Z,17.86
2018-07-04T00:39:02.120Z,17.86
2018-07-04T00:40:02.120Z,17.85
2018-07-04T00:41:02.122Z,17.83
2018-07-04T00:42:02.129Z,17.83
2018-07-04T00:43:02.130Z,17.82
2018-07-04T00:44:02.132Z,17.83
2018-07-04T00:45:02.135Z,17.90
2018-07-04T00:46:02.142Z,17.83
2018-07-04T00:47:02.142Z,17.87
2018-07-04T00:48:02.146Z,17.85
2018-07-04T00:49:02.148Z,17.79
2018-07-04T00:50:02.152Z,17.82
2018-07-04T00:51:02.156Z,17.76
2018-07-04T00:52:02.159Z,17.79
2018-07-04T00:53:02.160Z,17.79
2018-07-04T00:54:02.164Z,17.78
2018-07-04T00:55:02.166Z,17.70
2018-07-04T00:56:02.169Z,17.71
2018-07-04T00:57:02.172Z,17.68
2018-07-04T00:58:02.176Z,17.64
2018-07-04T00:59:02.181Z,17.57
2018-07-04T01:00:02.182Z,17.60
2018-07-04T01:01:02.188Z,17.54
2018-07-04T01:02:02.189Z,17.48
2018-07-04T01:03:02.192Z,17.56
2018-07-04T01:04:02.195Z,17.57
2018-07-04T01:05:02.197Z,17.56
2018-07-04T01:06:02.201Z,17.45
2018-07-04T01:07:02.203Z,17.52
2018-07-04T01:08:02.206Z,17.44
2018-07-04T01:09:02.211Z,17.41
2018-07-04T01:10:02.213Z,17.45
2018-07-04T01:11:02.228Z,17.39
2018-07-04T01:12:02.218Z,17.27
2018-07-04T01:13:02.222Z,17.30
2018-07-04T01:14:02.225Z,17.29
2018-07-04T01:15:02.230Z,17.24
2018-07-04T01:16:02.231Z,17.22
2018-07-04T01:17:02.233Z,17.14
2018-07-04T01:18:02.237Z,17.19
2018-07-04T01:19:02.239Z,17.06
2018-07-04T01:20:02.243Z,17.14
2018-07-04T01:21:02.247Z,17.11
2018-07-04T01:22:02.248Z,17.11
2018-07-04T01:23:02.251Z,17.06
2018-07-04T01:24:02.254Z,17.09
2018-07-04T01:25:02.257Z,17.08
2018-07-04T01:26:02.260Z,17.02
2018-07-04T01:27:02.263Z,17.01
2018-07-04T01:28:02.265Z,17.01
2018-07-04T01:29:02.266Z,16.94
2018-07-04T01:30:02.271Z,17.01
2018-07-04T01:31:02.273Z,16.99
2018-07-04T01:32:02.277Z,17.04
2018-07-04T01:33:02.279Z,17.01
2018-07-04T01:34:02.282Z,16.99
2018-07-04T01:35:02.286Z,16.89
2018-07-04T01:36:02.287Z,16.99
2018-07-04T01:37:02.289Z,16.89
2018-07-04T01:38:02.293Z,16.87
2018-07-04T01:39:02.294Z,16.87
2018-07-04T01:40:02.296Z,16.91
2018-07-04T01:41:02.301Z,16.96
2018-07-04T01:42:02.303Z,16.83
2018-07-04T01:43:02.306Z,16.87
2018-07-04T01:44:02.308Z,16.93
2018-07-04T01:45:02.311Z,16.93
2018-07-04T01:46:02.312Z,16.97
2018-07-04T01:47:02.321Z,16.90
2018-07-04T01:48:02.319Z,16.89
2018-07-04T01:49:02.320Z,17.02
2018-07-04T01:50:02.325Z,16.97
2018-07-04T01:51:02.330Z,16.93
2018-07-04T01:52:02.328Z,16.96
2018-07-04T01:53:02.332Z,16.86
2018-07-04T01:54:02.334Z,16.90
2018-07-04T01:55:02.337Z,16.89
2018-07-04T01:56:02.339Z,16.87
2018-07-04T01:57:02.341Z,16.86
2018-07-04T01:58:02.346Z,16.86
2018-07-04T01:59:02.347Z,16.81
2018-07-04T02:00:02.357Z,16.78
2018-07-04T02:01:02.351Z,16.79
2018-07-04T02:02:02.357Z,16.74
2018-07-04T02:03:02.358Z,16.81
2018-07-04T02:04:02.359Z,16.76
2018-07-04T02:05:02.362Z,16.71
2018-07-04T02:06:02.364Z,16.72
2018-07-04T02:07:02.368Z,16.71
2018-07-04T02:08:02.369Z,16.72
2018-07-04T02:09:02.373Z,16.72
2018-07-04T02:10:02.377Z,16.74
2018-07-04T02:11:02.377Z,16.71
2018-07-04T02:12:02.378Z,16.74
2018-07-04T02:13:02.382Z,16.81
2018-07-04T02:14:02.384Z,16.81
2018-07-04T02:15:02.413Z,16.74
2018-07-04T02:16:02.389Z,16.74
2018-07-04T02:17:02.393Z,16.76
2018-07-04T02:18:02.394Z,16.83
2018-07-04T02:19:02.398Z,16.84
2018-07-04T02:20:02.400Z,16.81
2018-07-04T02:21:02.400Z,16.83
2018-07-04T02:22:02.404Z,16.75
2018-07-04T02:23:02.406Z,16.72
2018-07-04T02:24:02.410Z,16.72
2018-07-04T02:25:02.411Z,16.76
2018-07-04T02:26:02.415Z,16.72
2018-07-04T02:27:02.416Z,16.83
2018-07-04T02:28:02.421Z,16.75
2018-07-04T02:29:02.421Z,16.72
2018-07-04T02:30:02.423Z,16.78
2018-07-04T02:31:02.429Z,16.91
2018-07-04T02:32:02.428Z,16.84
2018-07-04T02:33:02.431Z,16.86
2018-07-04T02:34:02.433Z,16.87
2018-07-04T02:35:02.437Z,16.84
2018-07-04T02:36:02.439Z,16.90
2018-07-04T02:37:02.440Z,16.87
2018-07-04T02:38:02.445Z,16.89
2018-07-04T02:39:02.447Z,16.96
2018-07-04T02:40:02.451Z,16.86
2018-07-04T02:41:02.450Z,16.94
2018-07-04T02:42:02.453Z,16.90
2018-07-04T02:43:02.455Z,16.99
2018-07-04T02:44:02.457Z,16.97
2018-07-04T02:45:02.483Z,16.97
2018-07-04T02:46:02.463Z,17.08
2018-07-04T02:47:02.466Z,17.04
2018-07-04T02:48:02.469Z,17.06
2018-07-04T02:49:02.469Z,17.11
2018-07-04T02:50:02.474Z,17.06
2018-07-04T02:51:02.479Z,17.11
2018-07-04T02:52:02.478Z,17.11
2018-07-04T02:53:02.480Z,17.12
2018-07-04T02:54:02.483Z,17.11
2018-07-04T02:55:02.486Z,17.02
2018-07-04T02:56:02.489Z,17.02
2018-07-04T02:57:02.491Z,17.05
2018-07-04T02:58:02.493Z,17.05
2018-07-04T02:59:02.496Z,17.04
2018-07-04T03:00:02.497Z,17.02
2018-07-04T03:01:02.501Z,17.02
2018-07-04T03:02:02.554Z,16.97
2018-07-04T03:03:02.513Z,17.01
2018-07-04T03:04:02.510Z,16.99
2018-07-04T03:05:02.512Z,16.99
2018-07-04T03:06:02.514Z,17.04
2018-07-04T03:07:02.516Z,16.96
2018-07-04T03:08:02.519Z,17.02
2018-07-04T03:09:02.522Z,16.86
2018-07-04T03:10:02.525Z,16.84
2018-07-04T03:11:02.527Z,16.84
2018-07-04T03:12:02.529Z,16.81
2018-07-04T03:13:02.532Z,16.79
2018-07-04T03:14:02.544Z,16.72
2018-07-04T03:15:02.536Z,16.74
2018-07-04T03:16:02.539Z,16.69
2018-07-04T03:17:02.545Z,16.72
2018-07-04T03:18:02.545Z,16.61
2018-07-04T03:19:02.547Z,16.64
2018-07-04T03:20:02.547Z,16.58
2018-07-04T03:21:02.549Z,16.60
2018-07-04T03:22:02.555Z,16.61
2018-07-04T03:23:02.557Z,16.60
2018-07-04T03:24:02.557Z,16.72
2018-07-04T03:25:02.570Z,16.76
2018-07-04T03:26:02.563Z,16.84
2018-07-04T03:27:02.565Z,16.86
2018-07-04T03:28:02.568Z,16.87
2018-07-04T03:29:02.568Z,16.89
2018-07-04T03:30:02.572Z,16.97
2018-07-04T03:31:02.575Z,16.87
2018-07-04T03:32:02.576Z,16.91
2018-07-04T03:33:02.637Z,16.91
2018-07-04T03:34:02.587Z,16.89
2018-07-04T03:35:02.583Z,16.84
2018-07-04T03:36:02.589Z,16.89
2018-07-04T03:37:02.588Z,16.86
2018-07-04T03:38:02.591Z,16.91
2018-07-04T03:39:02.592Z,16.81
2018-07-04T03:40:02.599Z,16.72
2018-07-04T03:41:02.600Z,16.72
2018-07-04T03:42:02.601Z,16.81
2018-07-04T03:43:02.606Z,16.79
2018-07-04T03:44:02.606Z,16.81
2018-07-04T03:45:02.605Z,16.78
2018-07-04T03:46:02.610Z,16.78
2018-07-04T03:47:02.613Z,16.87
2018-07-04T03:48:02.621Z,16.79
2018-07-04T03:49:02.616Z,16.86
2018-07-04T03:50:02.626Z,16.87
2018-07-04T03:51:02.622Z,16.87
2018-07-04T03:52:02.625Z,16.93
2018-07-04T03:53:02.626Z,16.84
2018-07-04T03:54:02.629Z,16.91
2018-07-04T03:55:02.632Z,16.86
2018-07-04T03:56:02.634Z,16.84
2018-07-04T03:57:02.636Z,16.87
2018-07-04T03:58:02.685Z,16.84
2018-07-04T03:59:02.642Z,16.89
2018-07-04T04:00:02.644Z,16.75
2018-07-04T04:01:02.647Z,16.74
2018-07-04T04:02:02.649Z,16.68
2018-07-04T04:03:02.652Z,16.76
2018-07-04T04:04:02.654Z,16.71
2018-07-04T04:05:02.655Z,16.74
2018-07-04T04:06:02.659Z,16.66
2018-07-04T04:07:02.660Z,16.75
2018-07-04T04:08:02.664Z,16.69
2018-07-04T04:09:02.665Z,16.84
2018-07-04T04:10:02.669Z,16.90
2018-07-04T04:11:02.671Z,16.87
2018-07-04T04:12:02.673Z,16.99
2018-07-04T04:13:02.675Z,17.06
2018-07-04T04:14:02.679Z,16.97
2018-07-04T04:15:02.681Z,17.05
2018-07-04T04:16:02.684Z,17.04
2018-07-04T04:17:02.686Z,17.08
2018-07-04T04:18:02.688Z,17.22
2018-07-04T04:19:02.694Z,17.20
2018-07-04T04:20:02.693Z,17.24
2018-07-04T04:21:02.698Z,17.23
2018-07-04T04:22:02.701Z,17.27
2018-07-04T04:23:02.702Z,17.33
2018-07-04T04:24:02.705Z,17.34
2018-07-04T04:25:02.706Z,17.39
2018-07-04T04:26:02.709Z,17.41
2018-07-04T04:27:02.767Z,17.38
2018-07-04T04:28:02.715Z,17.46
2018-07-04T04:29:02.718Z,17.45
2018-07-04T04:30:02.721Z,17.51
2018-07-04T04:31:02.729Z,17.52
2018-07-04T04:32:02.725Z,17.56
2018-07-04T04:33:02.729Z,17.65
2018-07-04T04:34:02.743Z,17.63
2018-07-04T04:35:02.735Z,17.67
2018-07-04T04:36:02.737Z,17.64
2018-07-04T04:37:02.741Z,17.67
2018-07-04T04:38:02.743Z,17.76
2018-07-04T04:39:02.746Z,17.79
2018-07-04T04:40:02.748Z,17.89
2018-07-04T04:41:02.753Z,17.90
2018-07-04T04:42:02.755Z,17.90
2018-07-04T04:43:02.758Z,17.87
2018-07-04T04:44:02.760Z,17.85
2018-07-04T04:45:02.764Z,17.94
2018-07-04T04:46:02.768Z,17.90
2018-07-04T04:47:02.768Z,17.97
2018-07-04T04:48:02.773Z,17.92
2018-07-04T04:49:02.776Z,18.01
2018-07-04T04:50:02.782Z,17.92
2018-07-04T04:51:02.783Z,18.13
2018-07-04T04:52:02.784Z,18.05
2018-07-04T04:53:02.789Z,18.05
2018-07-04T04:54:02.791Z,18.07
2018-07-04T04:55:02.795Z,18.03
2018-07-04T04:56:02.797Z,18.00
2018-07-04T04:57:02.801Z,18.15
2018-07-04T04:58:02.804Z,18.04
2018-07-04T04:59:02.807Z,18.05
2018-07-04T05:00:02.812Z,18.00
2018-07-04T05:01:02.812Z,18.04
2018-07-04T05:02:02.817Z,17.90
2018-07-04T05:03:02.822Z,18.04
2018-07-04T05:04:02.823Z,18.05
2018-07-04T05:05:02.826Z,18.08
2018-07-04T05:06:02.830Z,17.98
2018-07-04T05:07:02.832Z,18.03
2018-07-04T05:08:02.836Z,18.05
2018-07-04T05:09:02.839Z,18.10
2018-07-04T05:10:02.843Z,18.15
2018-07-04T05:11:02.845Z,18.08
2018-07-04T05:12:02.848Z,18.04
2018-07-04T05:13:02.851Z,18.03
2018-07-04T05:14:02.857Z,18.03
2018-07-04T05:15:02.864Z,17.92
2018-07-04T05:16:02.862Z,18.03
2018-07-04T05:17:02.868Z,18.01
2018-07-04T05:18:02.869Z,17.98
2018-07-04T05:19:02.874Z,17.90
2018-07-04T05:20:02.875Z,17.90
2018-07-04T05:21:02.879Z,17.94
2018-07-04T05:22:02.883Z,18.07
2018-07-04T05:23:02.890Z,17.94
2018-07-04T05:24:02.889Z,18.01
2018-07-04T05:25:02.892Z,18.05
2018-07-04T05:26:02.895Z,18.10
2018-07-04T05:27:02.899Z,18.22
2018-07-04T05:28:02.902Z,18.20
2018-07-04T05:29:02.904Z,18.18
2018-07-04T05:30:02.909Z,18.20
2018-07-04T05:31:02.913Z,18.25
2018-07-04T05:32:02.916Z,18.33
2018-07-04T05:33:02.919Z,18.38
2018-07-04T05:34:02.923Z,18.47
2018-07-04T05:35:02.970Z,18.50
2018-07-04T05:36:02.929Z,18.50
2018-07-04T05:37:02.932Z,18.49
2018-07-04T05:38:02.936Z,18.53
2018-07-04T05:39:02.942Z,18.71
2018-07-04T05:40:02.942Z,18.55
2018-07-04T05:41:02.952Z,18.70
2018-07-04T05:42:02.954Z,18.66
2018-07-04T05:43:02.954Z,18.71
2018-07-04T05:44:02.957Z,18.71
2018-07-04T05:45:02.962Z,18.65
2018-07-04T05:46:03.028Z,18.70
2018-07-04T05:47:02.969Z,18.88
2018-07-04T05:48:02.973Z,18.96
2018-07-04T05:49:02.979Z,18.95
2018-07-04T05:50:03.040Z,19.00
2018-07-04T05:51:02.984Z,19.21
2018-07-04T05:52:02.988Z,19.30
2018-07-04T05:53:02.992Z,19.30
2018-07-04T05:54:02.996Z,19.52
2018-07-04T05:55:03.000Z,19.51
2018-07-04T05:56:03.002Z,19.45
2018-07-04T05:57:03.008Z,19.51
2018-07-04T05:58:03.011Z,19.47
2018-07-04T05:59:03.062Z,19.62
2018-07-04T06:00:03.019Z,19.52
2018-07-04T06:01:03.023Z,19.62
2018-07-04T06:02:03.027Z,19.55
2018-07-04T06:03:03.035Z,19.56
2018-07-04T06:04:03.035Z,19.54
2018-07-04T06:05:03.041Z,19.49
2018-07-04T06:06:03.045Z,19.66
2018-07-04T06:07:03.048Z,19.71
2018-07-04T06:08:03.053Z,19.77
2018-07-04T06:09:03.104Z,19.85
2018-07-04T06:10:03.061Z,20.00
2018-07-04T06:11:03.067Z,20.04
2018-07-04T06:12:03.071Z,20.19
2018-07-04T06:13:03.074Z,20.29
2018-07-04T06:14:03.080Z,20.31
2018-07-04T06:15:03.136Z,20.29
2018-07-04T06:16:03.089Z,20.37
2018-07-04T06:17:03.113Z,20.40
2018-07-04T06:18:03.098Z,20.39
2018-07-04T06:19:03.104Z,20.36
2018-07-04T06:20:03.108Z,20.44
2018-07-04T06:21:03.112Z,20.55
2018-07-04T06:22:03.119Z,20.56
2018-07-04T06:23:03.124Z,20.65
2018-07-04T06:24:03.128Z,20.44
2018-07-04T06:25:03.136Z,20.48
2018-07-04T06:26:03.139Z,20.40
2018-07-04T06:27:03.145Z,20.40
2018-07-04T06:28:03.148Z,20.37
2018-07-04T06:29:03.154Z,20.39
2018-07-04T06:30:03.159Z,20.34
2018-07-04T06:31:03.165Z,20.26
2018-07-04T06:32:03.167Z,20.37
2018-07-04T06:33:03.173Z,20.40
2018-07-04T06:34:03.180Z,20.28
2018-07-04T06:35:03.186Z,20.32
2018-07-04T06:36:03.191Z,20.31
2018-07-04T06:37:03.195Z,20.34
2018-07-04T06:38:03.199Z,20.31
2018-07-04T06:39:03.209Z,20.09
2018-07-04T06:40:03.211Z,20.03
2018-07-04T06:41:03.216Z,20.07
2018-07-04T06:42:03.221Z,20.11
2018-07-04T06:43:03.228Z,20.24
2018-07-04T06:44:03.230Z,20.32
2018-07-04T06:45:03.239Z,20.47
2018-07-04T06:46:03.242Z,20.70
2018-07-04T06:47:03.248Z,20.87
2018-07-04T06:48:03.253Z,21.06
2018-07-04T06:49:03.318Z,21.33
2018-07-04T06:50:03.262Z,21.40
2018-07-04T06:51:03.271Z,21.50
2018-07-04T06:52:03.274Z,21.64
2018-07-04T06:53:03.282Z,21.61
2018-07-04T06:54:03.340Z,21.75
2018-07-04T06:55:03.292Z,21.93
2018-07-04T06:56:03.297Z,21.93
2018-07-04T06:57:03.305Z,22.06
2018-07-04T06:58:03.309Z,21.88
2018-07-04T06:59:03.316Z,22.06
2018-07-04T07:00:03.320Z,22.07
2018-07-04T07:01:03.327Z,22.15
2018-07-04T07:02:03.335Z,22.32
2018-07-04T07:03:03.340Z,22.50
2018-07-04T07:04:03.345Z,22.68
2018-07-04T07:05:03.353Z,22.96
2018-07-04T07:06:03.363Z,22.91
2018-07-04T07:07:03.366Z,22.98
2018-07-04T07:08:03.372Z,22.81
2018-07-04T07:09:03.383Z,22.60
2018-07-04T07:10:03.390Z,22.59
2018-07-04T07:11:03.394Z,22.55
2018-07-04T07:12:03.400Z,22.63
2018-07-04T07:13:03.409Z,22.38
2018-07-04T07:14:03.414Z,22.53
2018-07-04T07:15:03.422Z,22.76
2018-07-04T07:16:03.430Z,22.76
2018-07-04T07:17:03.437Z,22.85
2018-07-04T07:18:03.443Z,22.96
2018-07-04T07:19:03.451Z,23.00
2018-07-04T07:20:03.457Z,23.15
2018-07-04T07:21:03.518Z,23.12
2018-07-04T07:22:03.474Z,23.25
2018-07-04T07:23:03.479Z,23.25
2018-07-04T07:24:03.486Z,23.20
2018-07-04T07:25:03.493Z,23.25
2018-07-04T07:26:03.503Z,23.40
2018-07-04T07:27:03.510Z,23.31
2018-07-04T07:28:03.516Z,23.24
2018-07-04T07:29:03.523Z,23.21
2018-07-04T07:30:03.532Z,23.15
2018-07-04T07:31:03.540Z,23.20
2018-07-04T07:32:03.579Z,23.28
2018-07-04T07:33:03.554Z,23.27
2018-07-04T07:34:03.617Z,23.18
2018-07-04T07:35:03.572Z,23.25
2018-07-04T07:36:03.578Z,23.28
2018-07-04T07:37:03.585Z,23.50
2018-07-04T07:38:03.593Z,23.66
2018-07-04T07:39:03.601Z,24.24
2018-07-04T07:40:03.611Z,24.18
2018-07-04T07:41:03.620Z,24.28
2018-07-04T07:42:03.650Z,25.06
2018-07-04T07:43:03.634Z,26.26
2018-07-04T07:44:03.644Z,26.65
2018-07-04T07:45:03.651Z,25.91
2018-07-04T07:46:03.660Z,24.99
2018-07-04T07:47:03.669Z,24.73
2018-07-04T07:48:03.677Z,24.65
2018-07-04T07:49:03.688Z,24.47
2018-07-04T07:50:03.698Z,24.32
2018-07-04T07:51:03.707Z,24.20
2018-07-04T07:52:03.717Z,24.58
2018-07-04T07:53:03.727Z,24.93
2018-07-04T07:54:03.776Z,25.23
2018-07-04T07:55:03.751Z,25.72
2018-07-04T07:56:03.758Z,25.98
2018-07-04T07:57:03.768Z,26.65
2018-07-04T07:58:03.778Z,26.78
2018-07-04T07:59:03.788Z,27.20
2018-07-04T08:00:03.799Z,27.37
2018-07-04T08:01:03.812Z,27.95
2018-07-04T08:02:03.822Z,28.39
2018-07-04T08:03:03.837Z,28.82
2018-07-04T08:04:03.845Z,28.97
2018-07-04T08:05:03.859Z,29.22
2018-07-04T08:06:03.873Z,29.10
2018-07-04T08:07:03.885Z,29.38
2018-07-04T08:08:03.897Z,29.53
2018-07-04T08:09:03.911Z,29.26
2018-07-04T08:10:03.926Z,28.96
2018-07-04T08:11:03.939Z,28.57
2018-07-04T08:12:03.952Z,28.14
2018-07-04T08:13:03.968Z,27.93
2018-07-04T08:14:03.980Z,27.39
2018-07-04T08:15:03.995Z,26.84
2018-07-04T08:16:04.009Z,27.95
2018-07-04T08:17:04.027Z,28.15
2018-07-04T08:18:04.037Z,28.54
2018-07-04T08:19:04.051Z,29.39
2018-07-04T08:20:04.065Z,30.00
2018-07-04T08:21:04.078Z,30.27
2018-07-04T08:22:04.094Z,30.75
2018-07-04T08:23:04.107Z,30.77
2018-07-04T08:24:04.121Z,30.50
2018-07-04T08:25:04.137Z,30.69
2018-07-04T08:26:04.151Z,30.91
2018-07-04T08:27:04.165Z,30.61
2018-07-04T08:28:04.180Z,30.81
2018-07-04T08:29:04.193Z,29.82
2018-07-04T08:30:04.212Z,29.73
2018-07-04T08:31:04.224Z,29.94
2018-07-04T08:32:04.239Z,30.02
2018-07-04T08:33:04.257Z,30.15
2018-07-04T08:34:04.268Z,30.63
2018-07-04T08:35:04.287Z,30.40
2018-07-04T08:36:04.299Z,30.92
2018-07-04T08:37:04.316Z,31.09
2018-07-04T08:38:04.330Z,31.12
2018-07-04T08:39:04.349Z,30.77
2018-07-04T08:40:04.361Z,30.77
2018-07-04T08:41:04.405Z,30.53
2018-07-04T08:42:04.392Z,30.78
2018-07-04T08:43:04.409Z,30.47
2018-07-04T08:44:04.423Z,30.73
2018-07-04T08:45:04.443Z,30.16
2018-07-04T08:46:04.456Z,30.13
2018-07-04T08:47:04.477Z,30.55
2018-07-04T08:48:04.488Z,30.94
2018-07-04T08:49:04.504Z,30.73
2018-07-04T08:50:04.520Z,30.69
2018-07-04T08:51:04.536Z,31.02
2018-07-04T08:52:04.552Z,31.06
2018-07-04T08:53:04.568Z,31.12
2018-07-04T08:54:04.582Z,30.70
2018-07-04T08:55:04.600Z,30.72
2018-07-04T08:56:04.615Z,30.23
2018-07-04T08:57:04.632Z,30.77
2018-07-04T08:58:04.650Z,31.12
2018-07-04T08:59:04.664Z,31.47
2018-07-04T09:00:04.679Z,31.54
2018-07-04T09:01:04.697Z,32.01
2018-07-04T09:02:04.713Z,31.69
2018-07-04T09:03:04.732Z,30.90
2018-07-04T09:04:04.746Z,30.88
2018-07-04T09:05:04.761Z,31.14
2018-07-04T09:06:04.778Z,31.69
2018-07-04T09:07:04.795Z,31.99
2018-07-04T09:08:04.809Z,31.87
2018-07-04T09:09:04.827Z,31.46
2018-07-04T09:10:04.844Z,30.88
2018-07-04T09:11:04.858Z,30.39
2018-07-04T09:12:04.876Z,30.09
2018-07-04T09:13:04.892Z,29.91
2018-07-04T09:14:04.910Z,30.09
2018-07-04T09:15:04.928Z,30.19
2018-07-04T09:16:04.940Z,30.19
2018-07-04T09:17:04.958Z,30.54
2018-07-04T09:18:04.973Z,30.84
2018-07-04T09:19:04.989Z,30.90
2018-07-04T09:20:05.004Z,30.97
2018-07-04T09:21:05.021Z,31.12
2018-07-04T09:22:05.036Z,31.43
2018-07-04T09:23:05.055Z,31.66
2018-07-04T09:24:05.067Z,31.94
2018-07-04T09:25:05.084Z,31.85
2018-07-04T09:26:05.099Z,31.93
2018-07-04T09:27:05.118Z,31.92
2018-07-04T09:28:05.131Z,32.31
2018-07-04T09:29:05.146Z,32.38
2018-07-04T09:30:05.163Z,32.67
2018-07-04T09:31:05.179Z,32.80
2018-07-04T09:32:05.194Z,32.78
2018-07-04T09:33:05.211Z,30.77
2018-07-04T09:34:05.225Z,30.66
2018-07-04T09:35:05.244Z,31.03
2018-07-04T09:36:05.258Z,31.58
2018-07-04T09:37:05.276Z,31.64
2018-07-04T09:38:05.289Z,32.03
2018-07-04T09:39:05.306Z,32.74
2018-07-04T09:40:05.322Z,33.32
2018-07-04T09:41:05.338Z,32.95
2018-07-04T09:42:05.354Z,32.70
2018-07-04T09:43:05.370Z,32.77
2018-07-04T09:44:05.385Z,32.85
2018-07-04T09:45:05.402Z,33.27
2018-07-04T09:46:05.419Z,33.47
2018-07-04T09:47:05.434Z,33.74
2018-07-04T09:48:05.451Z,33.83
2018-07-04T09:49:05.467Z,34.08
2018-07-04T09:50:05.536Z,33.89
2018-07-04T09:51:05.499Z,33.79
2018-07-04T09:52:05.515Z,34.11
2018-07-04T09:53:05.530Z,33.89
2018-07-04T09:54:05.548Z,33.45
2018-07-04T09:55:05.564Z,33.31
2018-07-04T09:56:05.580Z,32.90
2018-07-04T09:57:05.602Z,33.27
2018-07-04T09:58:05.614Z,32.67
2018-07-04T09:59:05.632Z,32.65
2018-07-04T10:00:05.646Z,32.31
2018-07-04T10:01:05.662Z,32.45
2018-07-04T10:02:05.680Z,32.82
2018-07-04T10:03:05.695Z,32.74
2018-07-04T10:04:05.711Z,32.86
2018-07-04T10:05:05.731Z,32.96
2018-07-04T10:06:05.745Z,32.73
2018-07-04T10:07:05.761Z,32.92
2018-07-04T10:08:05.777Z,33.05
2018-07-04T10:09:05.794Z,33.43
2018-07-04T10:10:05.810Z,33.80
2018-07-04T10:11:05.828Z,34.11
2018-07-04T10:12:05.843Z,34.36
2018-07-04T10:13:05.862Z,34.57
2018-07-04T10:14:05.877Z,34.85
2018-07-04T10:15:05.893Z,34.99
2018-07-04T10:16:05.910Z,34.08
2018-07-04T10:17:05.927Z,32.95
2018-07-04T10:18:05.942Z,33.00
2018-07-04T10:19:05.959Z,33.19
2018-07-04T10:20:05.974Z,32.78
2018-07-04T10:21:05.992Z,32.56
2018-07-04T10:22:06.008Z,32.65
2018-07-04T10:23:06.025Z,32.83
2018-07-04T10:24:06.039Z,32.93
2018-07-04T10:25:06.058Z,33.11
2018-07-04T10:26:06.072Z,33.64
2018-07-04T10:27:06.090Z,33.89
2018-07-04T10:28:06.105Z,32.77
2018-07-04T10:29:06.121Z,32.31
2018-07-04T10:30:06.138Z,32.56
2018-07-04T10:31:06.154Z,33.12
2018-07-04T10:32:06.168Z,33.69
2018-07-04T10:33:06.186Z,34.38
2018-07-04T10:34:06.203Z,34.25
2018-07-04T10:35:06.217Z,33.73
2018-07-04T10:36:06.235Z,32.95
2018-07-04T10:37:06.251Z,32.64
2018-07-04T10:38:06.266Z,32.82
2018-07-04T10:39:06.284Z,32.80
2018-07-04T10:40:06.298Z,32.87
2018-07-04T10:41:06.313Z,32.74
2018-07-04T10:42:06.336Z,32.89
2018-07-04T10:43:06.347Z,31.43
2018-07-04T10:44:06.362Z,31.17
2018-07-04T10:45:06.378Z,31.56
2018-07-04T10:46:06.395Z,31.34
2018-07-04T10:47:06.410Z,30.88
2018-07-04T10:48:06.425Z,31.03
2018-07-04T10:49:06.442Z,31.34
2018-07-04T10:50:06.457Z,31.62
2018-07-04T10:51:06.475Z,32.30
2018-07-04T10:52:06.488Z,32.12
2018-07-04T10:53:06.504Z,31.94
2018-07-04T10:54:06.519Z,32.21
2018-07-04T10:55:06.536Z,32.43
2018-07-04T10:56:06.549Z,32.30
2018-07-04T10:57:06.564Z,31.77
2018-07-04T10:58:06.580Z,31.64
2018-07-04T10:59:06.597Z,32.33
2018-07-04T11:00:06.610Z,32.95
2018-07-04T11:01:06.626Z,33.47
2018-07-04T11:02:06.642Z,33.34
2018-07-04T11:03:06.658Z,33.04
2018-07-04T11:04:06.672Z,32.90
2018-07-04T11:05:06.689Z,32.75
2018-07-04T11:06:06.704Z,32.67
2018-07-04T11:07:06.718Z,32.74
2018-07-04T11:08:06.732Z,32.67
2018-07-04T11:09:06.748Z,32.68
2018-07-04T11:10:06.764Z,32.34
2018-07-04T11:11:06.778Z,32.52
2018-07-04T11:12:06.794Z,32.96
2018-07-04T11:13:06.810Z,32.92
2018-07-04T11:14:06.824Z,33.07
2018-07-04T11:15:06.839Z,32.90
2018-07-04T11:16:06.856Z,32.77
2018-07-04T11:17:06.983Z,32.59
2018-07-04T11:18:06.884Z,32.21
2018-07-04T11:19:06.899Z,32.09
2018-07-04T11:20:06.914Z,32.12
2018-07-04T11:21:06.928Z,32.19
2018-07-04T11:22:06.943Z,32.03
2018-07-04T11:23:06.958Z,32.11
2018-07-04T11:24:06.973Z,32.23
2018-07-04T11:25:06.993Z,31.99
2018-07-04T11:26:07.003Z,32.18
2018-07-04T11:27:07.017Z,32.19
2018-07-04T11:28:07.033Z,31.93
2018-07-04T11:29:07.044Z,31.49
2018-07-04T11:30:07.059Z,31.37
2018-07-04T11:31:07.075Z,31.40
2018-07-04T11:32:07.089Z,31.17
2018-07-04T11:33:07.103Z,31.14
2018-07-04T11:34:07.116Z,31.10
2018-07-04T11:35:07.132Z,30.91
2018-07-04T11:36:07.145Z,30.87
2018-07-04T11:37:07.160Z,30.88
2018-07-04T11:38:07.172Z,31.03
2018-07-04T11:39:07.188Z,31.18
2018-07-04T11:40:07.199Z,30.87
2018-07-04T11:41:07.214Z,30.87
2018-07-04T11:42:07.228Z,30.72
2018-07-04T11:43:07.241Z,30.87
2018-07-04T11:44:07.253Z,30.88
2018-07-04T11:45:07.268Z,30.87
2018-07-04T11:46:07.281Z,31.00
2018-07-04T11:47:07.295Z,31.15
2018-07-04T11:48:07.308Z,31.27
2018-07-04T11:49:07.325Z,31.36
2018-07-04T11:50:07.337Z,31.28
2018-07-04T11:51:07.348Z,31.22
2018-07-04T11:52:07.361Z,31.03
2018-07-04T11:53:07.388Z,30.87
2018-07-04T11:54:07.389Z,30.97
2018-07-04T11:55:07.401Z,30.97
2018-07-04T11:56:07.417Z,30.80
2018-07-04T11:57:07.502Z,30.75
2018-07-04T11:58:07.441Z,30.90
2018-07-04T11:59:07.453Z,31.10
2018-07-04T12:00:07.465Z,30.83
2018-07-04T12:01:07.479Z,31.05
2018-07-04T12:02:07.491Z,30.69
2018-07-04T12:03:07.505Z,30.80
2018-07-04T12:04:07.518Z,30.73
2018-07-04T12:05:07.530Z,30.80
2018-07-04T12:06:07.544Z,30.50
2018-07-04T12:07:07.561Z,30.43
2018-07-04T12:08:07.567Z,30.32
2018-07-04T12:09:07.581Z,30.50
2018-07-04T12:10:07.594Z,30.63
2018-07-04T12:11:07.608Z,30.91
2018-07-04T12:12:07.620Z,30.85
2018-07-04T12:13:07.632Z,31.06
2018-07-04T12:14:07.646Z,30.99
2018-07-04T12:15:07.657Z,31.12
2018-07-04T12:16:07.670Z,31.14
2018-07-04T12:17:07.683Z,31.14
2018-07-04T12:18:07.697Z,31.09
2018-07-04T12:19:07.708Z,31.10
2018-07-04T12:20:07.722Z,30.53
2018-07-04T12:21:07.735Z,30.51
2018-07-04T12:22:07.745Z,30.65
2018-07-04T12:23:07.760Z,30.59
2018-07-04T12:24:07.771Z,30.47
2018-07-04T12:25:07.784Z,30.39
2018-07-04T12:26:07.796Z,30.50
2018-07-04T12:27:07.810Z,30.48
2018-07-04T12:28:07.820Z,30.32
2018-07-04T12:29:07.833Z,30.35
2018-07-04T12:30:07.845Z,30.48
2018-07-04T12:31:07.859Z,30.46
2018-07-04T12:32:07.894Z,30.62
2018-07-04T12:33:07.883Z,30.63
2018-07-04T12:34:07.896Z,30.65
2018-07-04T12:35:07.908Z,30.62
2018-07-04T12:36:07.919Z,30.62
2018-07-04T12:37:07.932Z,30.62
2018-07-04T12:38:07.944Z,30.51
2018-07-04T12:39:07.959Z,30.81
2018-07-04T12:40:07.968Z,30.72
2018-07-04T12:41:07.980Z,30.91
2018-07-04T12:42:07.993Z,30.81
2018-07-04T12:43:08.007Z,30.90
2018-07-04T12:44:08.020Z,31.34
2018-07-04T12:45:08.030Z,31.77
2018-07-04T12:46:08.043Z,32.03
2018-07-04T12:47:08.089Z,31.87
2018-07-04T12:48:08.066Z,32.09
2018-07-04T12:49:08.078Z,32.09
2018-07-04T12:50:08.091Z,32.07
2018-07-04T12:51:08.113Z,32.08
2018-07-04T12:52:08.116Z,32.07